Terminal Aerodrome Forecast
Issued by NWS Memphis, TN

Home | Current Version | Previous Version | Text Only | Print | Product List | Glossary On
Versions: 1 2 3 4 5 6 7 8 9 10 11 12 13 14 15 16 17 18 19
000
FTUS44 KMEG 042331
TAFMKL
TAF
KMKL 042331Z 0500/0524 01015G28KT 5SM FZRA BR OVC009
      TEMPO 0500/0503 3SM -FZRAPL BR
     FM050300 02018G28KT 1SM PL BR OVC007
      TEMPO 0506/0509 1/2SM SN FG OVC003
     FM050900 01016G26KT 1/2SM SN FG OVC003
     FM051300 01012G20KT 3SM -SN OVC007
     FM051600 01012G20KT P6SM -SN OVC012
     FM052000 36012KT P6SM OVC050=

USA.gov is the U.S. government's official web portal to all federal, state and local government web resources and services.